Lesley Pg — MXUG5 — position and weather

sailwx.info

Track history (hours):
 
Tides and Currents Weather Stations Pressure Air Temp Water Temp Dewpoint Dewpoint Depression Visibility Wind Speed Wind Dir Waves Ship Positions

Lesley Pg

Last reported at 2017-Mar-24 22:23 UTC. Time now 2017-Mar-25 17:35 UTC.
Position N 15°33' W 061°33'.

Length 102 m; draft 4.3 m.

Type: Tanker. MMSI: 234910000.

Date/timePositionNaut miles runAvg speedWind from/ knotsBaromVisibWave heightAir tempDewpointWater temp
2017-Mar-24 22:23N 15°33' W 061°33'23 1.8
2017-Mar-24 09:27N 15°56' W 061°35'1010.6
2017-Mar-24 08:33N 15°55' W 061°45'3310.8
2017-Mar-24 05:30N 16°17' W 062°11'1111.8
2017-Mar-24 04:33N 16°26' W 062°17'1211.6
2017-Mar-24 03:33N 16°35' W 062°24'1111.1
2017-Mar-24 02:33N 16°45' W 062°30'1 0.1
2017-Mar-23 05:31N 16°46' W 062°31'1212.2
2017-Mar-23 04:33N 16°36' W 062°24'1212.1
2017-Mar-23 03:33N 16°26' W 062°17'4611.4
2017-Mar-22 23:32N 15°54' W 061°43'1511.2
2017-Mar-22 22:10N 16°04' W 061°31'711.6
2017-Mar-22 21:33N 16°11' W 061°31'3 3.4
2017-Mar-22 20:31N 16°14' W 061°33'0 0.0
2017-Mar-22 19:33N 16°14' W 061°33'0 0.0
2017-Mar-22 18:33N 16°14' W 061°33'0 0.0
2017-Mar-22 17:33N 16°14' W 061°33'0 0.0
2017-Mar-22 16:33N 16°14' W 061°33'0 0.0
2017-Mar-22 15:33N 16°14' W 061°33'0 0.0
2017-Mar-22 14:33N 16°14' W 061°33'0 0.0
2017-Mar-22 13:33N 16°14' W 061°33'0 0.0
2017-Mar-22 12:33N 16°14' W 061°33'3 2.6
2017-Mar-22 11:33N 16°12' W 061°31'  
Track history (hours):
 
Tides and Currents Weather Stations Pressure Air Temp Water Temp Dewpoint Dewpoint Depression Visibility Wind Speed Wind Dir Waves Ship Positions

Lesley Pg

Last reported at 2017-Mar-24 22:23 UTC. Time now 2017-Mar-25 17:35 UTC.
Position N 15°33' W 061°33'.

Length 102 m; draft 4.3 m.

Type: Tanker. MMSI: 234910000.

Date/timePositionNaut miles runAvg speedWind from/ knotsBaromVisibWave heightAir tempDewpointWater temp
2017-Mar-24 22:23N 15°33' W 061°33'23 1.8
2017-Mar-24 09:27N 15°56' W 061°35'1010.6
2017-Mar-24 08:33N 15°55' W 061°45'3310.8
2017-Mar-24 05:30N 16°17' W 062°11'1111.8
2017-Mar-24 04:33N 16°26' W 062°17'1211.6
2017-Mar-24 03:33N 16°35' W 062°24'1111.1
2017-Mar-24 02:33N 16°45' W 062°30'1 0.1
2017-Mar-23 05:31N 16°46' W 062°31'1212.2
2017-Mar-23 04:33N 16°36' W 062°24'1212.1
2017-Mar-23 03:33N 16°26' W 062°17'4611.4
2017-Mar-22 23:32N 15°54' W 061°43'1511.2
2017-Mar-22 22:10N 16°04' W 061°31'711.6
2017-Mar-22 21:33N 16°11' W 061°31'3 3.4
2017-Mar-22 20:31N 16°14' W 061°33'0 0.0
2017-Mar-22 19:33N 16°14' W 061°33'0 0.0
2017-Mar-22 18:33N 16°14' W 061°33'0 0.0
2017-Mar-22 17:33N 16°14' W 061°33'0 0.0
2017-Mar-22 16:33N 16°14' W 061°33'0 0.0
2017-Mar-22 15:33N 16°14' W 061°33'0 0.0
2017-Mar-22 14:33N 16°14' W 061°33'0 0.0
2017-Mar-22 13:33N 16°14' W 061°33'0 0.0
2017-Mar-22 12:33N 16°14' W 061°33'3 2.6
2017-Mar-22 11:33N 16°12' W 061°31'  

Dump ship's entire track history